Alagon, Spain
Current Conditions -  °F | °C
As of 1:00 AM on Saturday 29 Nov 2014 (Local Time) from LEZG Reporting Station
Light Rain Light Rain  
Wind Chill: 55°   Ceiling: 4000
Heat Index: 55°   Visibility: 4mi
Dew Point: 54°   Wind: 15mph
Humidity: 94%   Direction: 110°ESE
Pressure: 29.38"   Gusts: NA
Location:  41.77°N, 1.12°W
Report Text: LEZG 290000Z 11013KT 080V140 6000 -RA SCT020 BKN040 BKN05013/12 Q0995
Loading
Personal Weather Stations






























Interactive Weather Map New forecast layout! Learn more

10-Day Weather Forecast

Advertisements
Track Severe Weather on mobile